sensor_id;sensor_type;location;lat;lon;timestamp;pressure;altitude;pressure_sealevel;temperature;humidity
7774;BME280;3931;42.260;23.116;2023-02-14T00:01:07;96946.91;;;4.47;79.51
7774;BME280;3931;42.260;23.116;2023-02-14T00:03:34;96945.66;;;4.64;76.99
7774;BME280;3931;42.260;23.116;2023-02-14T00:06:04;96946.97;;;4.51;78.29
7774;BME280;3931;42.260;23.116;2023-02-14T00:08:31;96951.81;;;4.38;78.62
7774;BME280;3931;42.260;23.116;2023-02-14T00:10:57;96944.72;;;4.56;79.11
7774;BME280;3931;42.260;23.116;2023-02-14T00:13:23;96942.13;;;3.71;82.03
7774;BME280;3931;42.260;23.116;2023-02-14T00:15:49;96940.84;;;3.65;87.48
7774;BME280;3931;42.260;23.116;2023-02-14T00:18:15;96926.50;;;3.52;90.94
7774;BME280;3931;42.260;23.116;2023-02-14T00:20:41;96926.78;;;4.01;89.00
7774;BME280;3931;42.260;23.116;2023-02-14T00:23:07;96933.84;;;4.02;87.18
7774;BME280;3931;42.260;23.116;2023-02-14T00:25:33;96942.56;;;4.65;83.76
7774;BME280;3931;42.260;23.116;2023-02-14T00:28:00;96944.44;;;4.42;84.93
7774;BME280;3931;42.260;23.116;2023-02-14T00:30:26;96946.97;;;4.31;83.84
7774;BME280;3931;42.260;23.116;2023-02-14T00:32:52;96938.41;;;4.14;85.00
7774;BME280;3931;42.260;23.116;2023-02-14T00:35:19;96937.50;;;3.91;87.63
7774;BME280;3931;42.260;23.116;2023-02-14T00:37:45;96935.16;;;3.39;90.46
7774;BME280;3931;42.260;23.116;2023-02-14T00:40:12;96947.22;;;4.84;85.00
7774;BME280;3931;42.260;23.116;2023-02-14T00:42:38;96942.28;;;4.51;81.33
7774;BME280;3931;42.260;23.116;2023-02-14T00:45:04;96939.06;;;4.46;83.21
7774;BME280;3931;42.260;23.116;2023-02-14T00:47:31;96940.34;;;4.93;81.46
7774;BME280;3931;42.260;23.116;2023-02-14T00:49:58;96937.72;;;4.59;81.87
7774;BME280;3931;42.260;23.116;2023-02-14T00:52:27;96932.13;;;4.52;81.41
7774;BME280;3931;42.260;23.116;2023-02-14T00:54:53;96930.88;;;4.68;81.92
7774;BME280;3931;42.260;23.116;2023-02-14T00:57:19;96924.91;;;4.43;82.80
7774;BME280;3931;42.260;23.116;2023-02-14T00:59:45;96926.31;;;4.15;83.82
7774;BME280;3931;42.260;23.116;2023-02-14T01:02:11;96930.41;;;4.05;86.32
7774;BME280;3931;42.260;23.116;2023-02-14T01:04:37;96919.94;;;4.30;84.92
7774;BME280;3931;42.260;23.116;2023-02-14T01:07:04;96925.22;;;4.38;84.78
7774;BME280;3931;42.260;23.116;2023-02-14T01:09:30;96933.25;;;4.70;82.43
7774;BME280;3931;42.260;23.116;2023-02-14T01:11:56;96931.03;;;4.75;81.72
7774;BME280;3931;42.260;23.116;2023-02-14T01:14:22;96928.09;;;4.46;83.07
7774;BME280;3931;42.260;23.116;2023-02-14T01:16:48;96930.53;;;4.51;84.33
7774;BME280;3931;42.260;23.116;2023-02-14T01:19:14;96925.44;;;4.91;82.07
7774;BME280;3931;42.260;23.116;2023-02-14T01:21:40;96921.09;;;4.48;82.97
7774;BME280;3931;42.260;23.116;2023-02-14T01:24:08;96922.09;;;4.59;83.95
7774;BME280;3931;42.260;23.116;2023-02-14T01:26:34;96930.56;;;4.73;83.01
7774;BME280;3931;42.260;23.116;2023-02-14T01:29:01;96919.50;;;4.47;82.68
7774;BME280;3931;42.260;23.116;2023-02-14T01:31:29;96921.00;;;4.44;83.77
7774;BME280;3931;42.260;23.116;2023-02-14T01:33:56;96923.91;;;4.32;84.49
7774;BME280;3931;42.260;23.116;2023-02-14T01:36:24;96920.25;;;4.44;82.32
7774;BME280;3931;42.260;23.116;2023-02-14T01:38:51;96921.28;;;3.47;87.36
7774;BME280;3931;42.260;23.116;2023-02-14T01:41:19;96904.72;;;3.25;92.58
7774;BME280;3931;42.260;23.116;2023-02-14T01:43:58;96920.88;;;4.57;84.89
7774;BME280;3931;42.260;23.116;2023-02-14T01:46:26;96927.53;;;4.36;83.00
7774;BME280;3931;42.260;23.116;2023-02-14T01:48:55;96922.91;;;4.40;81.62
7774;BME280;3931;42.260;23.116;2023-02-14T01:51:24;96916.78;;;4.28;82.58
7774;BME280;3931;42.260;23.116;2023-02-14T01:53:50;96909.00;;;4.30;83.18
7774;BME280;3931;42.260;23.116;2023-02-14T01:56:21;96911.22;;;4.05;83.05
7774;BME280;3931;42.260;23.116;2023-02-14T01:58:51;96922.59;;;4.26;81.76
7774;BME280;3931;42.260;23.116;2023-02-14T02:01:18;96908.25;;;4.33;84.17
7774;BME280;3931;42.260;23.116;2023-02-14T02:03:48;96900.03;;;4.33;84.00
7774;BME280;3931;42.260;23.116;2023-02-14T02:06:16;96905.19;;;4.34;85.12
7774;BME280;3931;42.260;23.116;2023-02-14T02:08:50;96891.47;;;4.34;85.06
7774;BME280;3931;42.260;23.116;2023-02-14T02:11:19;96894.88;;;4.70;81.66
7774;BME280;3931;42.260;23.116;2023-02-14T02:13:45;96899.75;;;4.38;82.69
7774;BME280;3931;42.260;23.116;2023-02-14T02:16:26;96880.50;;;2.92;91.90
7774;BME280;3931;42.260;23.116;2023-02-14T02:19:06;96851.59;;;2.91;97.75
7774;BME280;3931;42.260;23.116;2023-02-14T02:22:01;96837.84;;;2.87;99.08
7774;BME280;3931;42.260;23.116;2023-02-14T02:24:39;96828.94;;;2.75;100.00
7774;BME280;3931;42.260;23.116;2023-02-14T02:27:18;96845.00;;;3.27;97.25
7774;BME280;3931;42.260;23.116;2023-02-14T02:39:31;96846.56;;;2.93;97.52
7774;BME280;3931;42.260;23.116;2023-02-14T02:42:04;96837.78;;;3.34;97.68
7774;BME280;3931;42.260;23.116;2023-02-14T02:44:41;96861.00;;;3.44;94.53
7774;BME280;3931;42.260;23.116;2023-02-14T02:47:17;96840.28;;;3.08;96.52
7774;BME280;3931;42.260;23.116;2023-02-14T02:49:54;96844.09;;;2.72;97.93
7774;BME280;3931;42.260;23.116;2023-02-14T02:52:44;96818.44;;;2.61;100.00
7774;BME280;3931;42.260;23.116;2023-02-14T02:55:35;96814.50;;;2.74;100.00
7774;BME280;3931;42.260;23.116;2023-02-14T02:58:19;96813.16;;;3.34;100.00
7774;BME280;3931;42.260;23.116;2023-02-14T03:00:47;96822.00;;;3.28;96.95
7774;BME280;3931;42.260;23.116;2023-02-14T03:03:15;96810.78;;;2.67;100.00
7774;BME280;3931;42.260;23.116;2023-02-14T03:06:00;96799.28;;;2.92;100.00
7774;BME280;3931;42.260;23.116;2023-02-14T03:08:27;96780.59;;;3.10;100.00
7774;BME280;3931;42.260;23.116;2023-02-14T03:10:54;96798.47;;;3.23;98.09
7774;BME280;3931;42.260;23.116;2023-02-14T03:13:45;96812.38;;;3.53;95.31
7774;BME280;3931;42.260;23.116;2023-02-14T03:16:32;96792.44;;;3.72;97.57
7774;BME280;3931;42.260;23.116;2023-02-14T03:21:54;96844.72;;;3.66;90.05
7774;BME280;3931;42.260;23.116;2023-02-14T03:24:25;96854.06;;;3.31;91.25
7774;BME280;3931;42.260;23.116;2023-02-14T03:26:58;96851.44;;;4.07;90.50
7774;BME280;3931;42.260;23.116;2023-02-14T03:29:32;96854.53;;;3.67;88.25
7774;BME280;3931;42.260;23.116;2023-02-14T03:32:04;96846.16;;;3.99;90.56
7774;BME280;3931;42.260;23.116;2023-02-14T03:34:37;96836.63;;;4.31;87.50
7774;BME280;3931;42.260;23.116;2023-02-14T03:37:09;96837.94;;;4.18;86.52
7774;BME280;3931;42.260;23.116;2023-02-14T03:39:39;96838.16;;;4.28;85.76
7774;BME280;3931;42.260;23.116;2023-02-14T03:42:13;96831.22;;;4.15;86.68
7774;BME280;3931;42.260;23.116;2023-02-14T03:44:42;96831.78;;;4.43;83.77
7774;BME280;3931;42.260;23.116;2023-02-14T03:47:11;96832.72;;;3.90;87.39
7774;BME280;3931;42.260;23.116;2023-02-14T03:49:42;96825.47;;;4.20;86.97
7774;BME280;3931;42.260;23.116;2023-02-14T03:52:10;96827.88;;;4.44;88.30
7774;BME280;3931;42.260;23.116;2023-02-14T03:54:37;96836.97;;;4.29;86.26
7774;BME280;3931;42.260;23.116;2023-02-14T03:57:10;96831.03;;;4.05;87.69
7774;BME280;3931;42.260;23.116;2023-02-14T03:59:40;96826.34;;;4.70;84.60
7774;BME280;3931;42.260;23.116;2023-02-14T04:02:10;96834.22;;;4.49;84.59
7774;BME280;3931;42.260;23.116;2023-02-14T04:04:43;96822.88;;;4.27;85.82
7774;BME280;3931;42.260;23.116;2023-02-14T04:07:11;96805.16;;;4.02;86.92
7774;BME280;3931;42.260;23.116;2023-02-14T04:09:37;96819.66;;;4.44;87.39
7774;BME280;3931;42.260;23.116;2023-02-14T04:12:04;96800.91;;;4.24;88.81
7774;BME280;3931;42.260;23.116;2023-02-14T04:14:30;96794.41;;;4.55;87.68
7774;BME280;3931;42.260;23.116;2023-02-14T04:16:56;96812.41;;;4.56;85.20
7774;BME280;3931;42.260;23.116;2023-02-14T04:19:40;96815.03;;;4.07;85.30
7774;BME280;3931;42.260;23.116;2023-02-14T04:22:06;96804.59;;;3.93;86.69
7774;BME280;3931;42.260;23.116;2023-02-14T04:24:32;96807.63;;;4.07;87.35
7774;BME280;3931;42.260;23.116;2023-02-14T04:26:58;96807.00;;;3.95;87.76
7774;BME280;3931;42.260;23.116;2023-02-14T04:29:38;96813.59;;;3.94;88.10
7774;BME280;3931;42.260;23.116;2023-02-14T04:32:06;96811.41;;;4.22;88.43
7774;BME280;3931;42.260;23.116;2023-02-14T04:34:33;96811.97;;;4.54;86.23
7774;BME280;3931;42.260;23.116;2023-02-14T04:36:59;96810.22;;;4.65;83.25
7774;BME280;3931;42.260;23.116;2023-02-14T04:39:25;96804.72;;;4.42;85.90
7774;BME280;3931;42.260;23.116;2023-02-14T04:41:51;96802.50;;;4.48;84.66
7774;BME280;3931;42.260;23.116;2023-02-14T04:44:17;96808.69;;;4.03;85.24
7774;BME280;3931;42.260;23.116;2023-02-14T04:46:43;96799.44;;;4.30;86.30
7774;BME280;3931;42.260;23.116;2023-02-14T04:49:10;96799.38;;;4.72;83.30
7774;BME280;3931;42.260;23.116;2023-02-14T04:51:36;96804.28;;;4.17;83.48
7774;BME280;3931;42.260;23.116;2023-02-14T04:54:02;96819.75;;;4.29;84.12
7774;BME280;3931;42.260;23.116;2023-02-14T04:56:28;96803.59;;;4.66;86.04
7774;BME280;3931;42.260;23.116;2023-02-14T04:58:55;96806.38;;;4.69;83.70
7774;BME280;3931;42.260;23.116;2023-02-14T05:01:21;96805.81;;;4.60;84.42
7774;BME280;3931;42.260;23.116;2023-02-14T05:03:47;96802.47;;;4.93;82.54
7774;BME280;3931;42.260;23.116;2023-02-14T05:06:13;96801.53;;;5.08;79.97
7774;BME280;3931;42.260;23.116;2023-02-14T05:08:39;96800.59;;;4.74;79.66
7774;BME280;3931;42.260;23.116;2023-02-14T05:11:05;96789.13;;;5.18;80.35
7774;BME280;3931;42.260;23.116;2023-02-14T05:13:31;96797.03;;;4.06;84.72
7774;BME280;3931;42.260;23.116;2023-02-14T05:15:58;96781.97;;;3.96;87.65
7774;BME280;3931;42.260;23.116;2023-02-14T05:18:24;96778.47;;;4.18;88.20
7774;BME280;3931;42.260;23.116;2023-02-14T05:20:51;96772.53;;;4.84;84.54
7774;BME280;3931;42.260;23.116;2023-02-14T05:23:18;96777.72;;;4.40;86.26
7774;BME280;3931;42.260;23.116;2023-02-14T05:25:46;96774.47;;;4.12;87.34
7774;BME280;3931;42.260;23.116;2023-02-14T05:28:12;96764.66;;;4.11;90.58
7774;BME280;3931;42.260;23.116;2023-02-14T05:30:38;96776.03;;;4.81;86.80
7774;BME280;3931;42.260;23.116;2023-02-14T05:33:04;96785.66;;;3.85;85.96
7774;BME280;3931;42.260;23.116;2023-02-14T05:35:30;96769.19;;;3.62;93.93
7774;BME280;3931;42.260;23.116;2023-02-14T05:37:56;96768.91;;;3.67;93.84
7774;BME280;3931;42.260;23.116;2023-02-14T05:40:23;96760.72;;;3.48;97.90
7774;BME280;3931;42.260;23.116;2023-02-14T05:42:50;96764.19;;;3.87;97.52
7774;BME280;3931;42.260;23.116;2023-02-14T05:45:16;96771.66;;;4.09;94.53
7774;BME280;3931;42.260;23.116;2023-02-14T05:47:42;96780.09;;;4.19;93.20
7774;BME280;3931;42.260;23.116;2023-02-14T05:50:10;96776.84;;;4.36;91.18
7774;BME280;3931;42.260;23.116;2023-02-14T05:52:38;96778.66;;;4.74;87.53
7774;BME280;3931;42.260;23.116;2023-02-14T05:55:04;96793.72;;;4.61;86.31
7774;BME280;3931;42.260;23.116;2023-02-14T05:57:31;96792.91;;;4.38;87.23
7774;BME280;3931;42.260;23.116;2023-02-14T05:59:57;96790.25;;;4.19;90.77
7774;BME280;3931;42.260;23.116;2023-02-14T06:02:23;96780.75;;;4.35;92.16
7774;BME280;3931;42.260;23.116;2023-02-14T06:04:49;96790.97;;;4.38;90.16
7774;BME280;3931;42.260;23.116;2023-02-14T06:07:16;96797.91;;;5.27;85.60
7774;BME280;3931;42.260;23.116;2023-02-14T06:09:42;96807.91;;;5.15;80.39
7774;BME280;3931;42.260;23.116;2023-02-14T06:12:08;96811.84;;;4.92;83.99
7774;BME280;3931;42.260;23.116;2023-02-14T06:14:35;96808.53;;;5.58;81.48
7774;BME280;3931;42.260;23.116;2023-02-14T06:17:01;96810.31;;;5.21;79.86
7774;BME280;3931;42.260;23.116;2023-02-14T06:19:27;96794.13;;;5.12;83.94
7774;BME280;3931;42.260;23.116;2023-02-14T06:21:53;96804.34;;;4.89;84.71
7774;BME280;3931;42.260;23.116;2023-02-14T06:24:19;96801.41;;;4.52;87.42
7774;BME280;3931;42.260;23.116;2023-02-14T06:26:45;96800.78;;;4.39;87.91
7774;BME280;3931;42.260;23.116;2023-02-14T06:29:11;96799.72;;;4.93;86.33
7774;BME280;3931;42.260;23.116;2023-02-14T06:31:37;96791.28;;;4.79;87.98
7774;BME280;3931;42.260;23.116;2023-02-14T06:34:04;96795.59;;;4.80;87.14
7774;BME280;3931;42.260;23.116;2023-02-14T06:36:30;96801.31;;;4.71;88.50
7774;BME280;3931;42.260;23.116;2023-02-14T06:38:56;96805.75;;;5.28;87.61
7774;BME280;3931;42.260;23.116;2023-02-14T06:41:22;96819.34;;;4.95;84.34
7774;BME280;3931;42.260;23.116;2023-02-14T06:43:48;96808.34;;;5.47;83.07
7774;BME280;3931;42.260;23.116;2023-02-14T06:46:14;96813.00;;;6.03;78.59
7774;BME280;3931;42.260;23.116;2023-02-14T06:48:40;96811.63;;;5.56;80.07
7774;BME280;3931;42.260;23.116;2023-02-14T06:51:07;96804.50;;;5.22;81.70
7774;BME280;3931;42.260;23.116;2023-02-14T06:53:33;96810.69;;;5.45;81.05
7774;BME280;3931;42.260;23.116;2023-02-14T06:55:59;96800.13;;;6.07;79.77
7774;BME280;3931;42.260;23.116;2023-02-14T06:58:25;96817.53;;;5.84;79.61
7774;BME280;3931;42.260;23.116;2023-02-14T07:00:53;96816.28;;;5.82;81.69
7774;BME280;3931;42.260;23.116;2023-02-14T07:03:19;96811.91;;;5.77;81.51
7774;BME280;3931;42.260;23.116;2023-02-14T07:05:46;96805.41;;;5.89;81.19
7774;BME280;3931;42.260;23.116;2023-02-14T07:08:12;96804.91;;;6.13;79.56
7774;BME280;3931;42.260;23.116;2023-02-14T07:10:38;96801.00;;;6.54;77.67
7774;BME280;3931;42.260;23.116;2023-02-14T07:13:04;96806.22;;;6.26;76.47
7774;BME280;3931;42.260;23.116;2023-02-14T07:15:31;96808.34;;;6.40;77.45
7774;BME280;3931;42.260;23.116;2023-02-14T07:17:57;96800.78;;;5.97;78.46
7774;BME280;3931;42.260;23.116;2023-02-14T07:20:23;96805.84;;;6.65;77.33
7774;BME280;3931;42.260;23.116;2023-02-14T07:22:50;96800.97;;;6.95;73.61
7774;BME280;3931;42.260;23.116;2023-02-14T07:25:16;96794.63;;;7.38;71.02
7774;BME280;3931;42.260;23.116;2023-02-14T07:27:43;96797.44;;;6.94;72.18
7774;BME280;3931;42.260;23.116;2023-02-14T07:30:10;96792.50;;;7.21;73.09
7774;BME280;3931;42.260;23.116;2023-02-14T07:32:37;96790.63;;;7.28;73.12
7774;BME280;3931;42.260;23.116;2023-02-14T07:35:04;96784.94;;;7.04;71.76
7774;BME280;3931;42.260;23.116;2023-02-14T07:37:31;96777.53;;;7.80;66.76
7774;BME280;3931;42.260;23.116;2023-02-14T07:39:58;96786.25;;;7.99;63.55
7774;BME280;3931;42.260;23.116;2023-02-14T07:42:24;96777.38;;;8.52;61.14
7774;BME280;3931;42.260;23.116;2023-02-14T07:44:50;96785.34;;;7.71;66.28
7774;BME280;3931;42.260;23.116;2023-02-14T07:47:16;96780.84;;;7.42;69.20
7774;BME280;3931;42.260;23.116;2023-02-14T07:49:42;96774.69;;;7.59;70.33
7774;BME280;3931;42.260;23.116;2023-02-14T07:52:08;96772.16;;;7.29;71.24
7774;BME280;3931;42.260;23.116;2023-02-14T07:54:34;96772.66;;;7.49;71.69
7774;BME280;3931;42.260;23.116;2023-02-14T07:57:01;96774.84;;;7.22;71.10
7774;BME280;3931;42.260;23.116;2023-02-14T07:59:27;96780.44;;;7.36;72.43
7774;BME280;3931;42.260;23.116;2023-02-14T08:01:53;96772.28;;;7.57;70.00
7774;BME280;3931;42.260;23.116;2023-02-14T08:04:19;96784.66;;;7.19;73.61
7774;BME280;3931;42.260;23.116;2023-02-14T08:06:45;96776.69;;;7.04;77.02
7774;BME280;3931;42.260;23.116;2023-02-14T08:09:12;96785.09;;;7.28;77.84
7774;BME280;3931;42.260;23.116;2023-02-14T08:11:48;96787.75;;;7.79;76.03
7774;BME280;3931;42.260;23.116;2023-02-14T08:14:34;96788.84;;;7.64;75.54
7774;BME280;3931;42.260;23.116;2023-02-14T08:17:00;96782.94;;;7.62;74.96
7774;BME280;3931;42.260;23.116;2023-02-14T08:19:26;96794.56;;;7.31;77.15
7774;BME280;3931;42.260;23.116;2023-02-14T08:21:52;96790.06;;;7.70;75.51
7774;BME280;3931;42.260;23.116;2023-02-14T08:24:18;96790.97;;;7.92;75.78
7774;BME280;3931;42.260;23.116;2023-02-14T08:26:44;96786.50;;;7.63;74.50
7774;BME280;3931;42.260;23.116;2023-02-14T08:29:10;96788.44;;;7.59;75.11
7774;BME280;3931;42.260;23.116;2023-02-14T08:31:37;96785.09;;;8.00;74.16
7774;BME280;3931;42.260;23.116;2023-02-14T08:34:03;96787.38;;;7.88;72.54
7774;BME280;3931;42.260;23.116;2023-02-14T08:36:30;96787.03;;;8.03;71.27
7774;BME280;3931;42.260;23.116;2023-02-14T08:38:56;96783.91;;;7.98;71.18
7774;BME280;3931;42.260;23.116;2023-02-14T08:41:22;96779.75;;;8.53;69.55
7774;BME280;3931;42.260;23.116;2023-02-14T08:43:49;96782.88;;;8.41;68.25
7774;BME280;3931;42.260;23.116;2023-02-14T08:46:15;96793.13;;;8.51;68.59
7774;BME280;3931;42.260;23.116;2023-02-14T08:48:42;96801.97;;;7.92;67.00
7774;BME280;3931;42.260;23.116;2023-02-14T08:51:10;96796.63;;;7.45;69.80
7774;BME280;3931;42.260;23.116;2023-02-14T08:53:37;96800.28;;;7.63;69.54
7774;BME280;3931;42.260;23.116;2023-02-14T08:56:04;96803.69;;;7.46;70.10
7774;BME280;3931;42.260;23.116;2023-02-14T08:58:30;96801.25;;;8.13;67.99
7774;BME280;3931;42.260;23.116;2023-02-14T09:00:57;96798.16;;;8.25;68.22
7774;BME280;3931;42.260;23.116;2023-02-14T09:03:23;96792.66;;;8.21;66.79
7774;BME280;3931;42.260;23.116;2023-02-14T09:05:50;96799.06;;;8.60;64.87
7774;BME280;3931;42.260;23.116;2023-02-14T09:08:16;96806.94;;;8.79;63.08
7774;BME280;3931;42.260;23.116;2023-02-14T09:10:42;96807.34;;;8.60;63.84
7774;BME280;3931;42.260;23.116;2023-02-14T09:13:08;96806.19;;;9.07;62.10
7774;BME280;3931;42.260;23.116;2023-02-14T09:15:34;96814.84;;;8.67;62.79
7774;BME280;3931;42.260;23.116;2023-02-14T09:18:00;96811.63;;;8.40;65.05
7774;BME280;3931;42.260;23.116;2023-02-14T09:20:26;96814.06;;;8.91;63.97
7774;BME280;3931;42.260;23.116;2023-02-14T09:22:55;96817.19;;;8.68;64.36
7774;BME280;3931;42.260;23.116;2023-02-14T09:25:21;96814.66;;;8.18;66.17
7774;BME280;3931;42.260;23.116;2023-02-14T09:27:47;96815.53;;;8.36;67.27
7774;BME280;3931;42.260;23.116;2023-02-14T09:30:14;96807.34;;;8.57;66.75
7774;BME280;3931;42.260;23.116;2023-02-14T09:32:40;96803.03;;;8.84;64.69
7774;BME280;3931;42.260;23.116;2023-02-14T09:35:06;96805.38;;;8.68;64.97
7774;BME280;3931;42.260;23.116;2023-02-14T09:37:51;96803.81;;;8.74;64.69
7774;BME280;3931;42.260;23.116;2023-02-14T09:40:18;96799.41;;;8.38;67.00
7774;BME280;3931;42.260;23.116;2023-02-14T09:42:49;96793.00;;;8.05;67.66
7774;BME280;3931;42.260;23.116;2023-02-14T09:45:20;96788.31;;;8.17;69.25
7774;BME280;3931;42.260;23.116;2023-02-14T09:47:50;96790.94;;;7.88;68.89
7774;BME280;3931;42.260;23.116;2023-02-14T09:50:21;96792.16;;;8.01;70.19
7774;BME280;3931;42.260;23.116;2023-02-14T09:52:51;96790.41;;;8.65;67.67
7774;BME280;3931;42.260;23.116;2023-02-14T09:55:19;96791.97;;;8.66;67.72
7774;BME280;3931;42.260;23.116;2023-02-14T09:57:59;96792.00;;;8.80;66.60
7774;BME280;3931;42.260;23.116;2023-02-14T10:00:32;96775.44;;;8.95;65.64
7774;BME280;3931;42.260;23.116;2023-02-14T10:03:24;96785.28;;;9.10;64.00
7774;BME280;3931;42.260;23.116;2023-02-14T10:06:02;96792.75;;;8.56;67.16
7774;BME280;3931;42.260;23.116;2023-02-14T10:08:42;96784.50;;;9.16;64.33
7774;BME280;3931;42.260;23.116;2023-02-14T10:11:16;96773.47;;;8.88;65.74
7774;BME280;3931;42.260;23.116;2023-02-14T10:13:48;96783.31;;;9.03;64.35
7774;BME280;3931;42.260;23.116;2023-02-14T10:16:19;96769.91;;;8.91;66.19
7774;BME280;3931;42.260;23.116;2023-02-14T10:18:51;96773.59;;;7.88;69.83
7774;BME280;3931;42.260;23.116;2023-02-14T10:21:22;96776.44;;;7.98;71.94
7774;BME280;3931;42.260;23.116;2023-02-14T10:23:50;96765.44;;;8.20;71.13
7774;BME280;3931;42.260;23.116;2023-02-14T10:26:23;96767.38;;;7.98;71.54
7774;BME280;3931;42.260;23.116;2023-02-14T10:28:51;96764.25;;;8.06;72.23
7774;BME280;3931;42.260;23.116;2023-02-14T10:31:20;96770.56;;;8.18;71.40
7774;BME280;3931;42.260;23.116;2023-02-14T10:33:55;96760.28;;;8.04;71.79
7774;BME280;3931;42.260;23.116;2023-02-14T10:36:39;96762.84;;;8.72;70.00
7774;BME280;3931;42.260;23.116;2023-02-14T10:39:20;96765.97;;;8.78;67.57
7774;BME280;3931;42.260;23.116;2023-02-14T10:41:55;96765.94;;;9.31;65.89
7774;BME280;3931;42.260;23.116;2023-02-14T10:44:36;96762.41;;;8.85;66.56
7774;BME280;3931;42.260;23.116;2023-02-14T10:47:17;96764.41;;;8.77;67.02
7774;BME280;3931;42.260;23.116;2023-02-14T10:49:55;96760.06;;;8.76;68.60
7774;BME280;3931;42.260;23.116;2023-02-14T10:52:26;96763.22;;;8.74;67.40
7774;BME280;3931;42.260;23.116;2023-02-14T10:54:55;96758.47;;;9.10;67.42
7774;BME280;3931;42.260;23.116;2023-02-14T10:57:25;96749.41;;;9.10;66.63
7774;BME280;3931;42.260;23.116;2023-02-14T10:59:57;96751.72;;;9.29;65.29
7774;BME280;3931;42.260;23.116;2023-02-14T11:02:29;96754.91;;;9.34;65.10
7774;BME280;3931;42.260;23.116;2023-02-14T11:04:56;96748.00;;;9.92;62.53
7774;BME280;3931;42.260;23.116;2023-02-14T11:07:23;96747.75;;;9.54;63.10
7774;BME280;3931;42.260;23.116;2023-02-14T11:09:49;96738.28;;;9.52;64.23
7774;BME280;3931;42.260;23.116;2023-02-14T11:12:31;96741.09;;;9.13;65.09
7774;BME280;3931;42.260;23.116;2023-02-14T11:15:09;96730.34;;;9.68;64.64
7774;BME280;3931;42.260;23.116;2023-02-14T11:17:35;96733.47;;;9.77;63.44
7774;BME280;3931;42.260;23.116;2023-02-14T11:20:12;96731.13;;;9.65;63.63
7774;BME280;3931;42.260;23.116;2023-02-14T11:22:45;96720.19;;;9.37;64.30
7774;BME280;3931;42.260;23.116;2023-02-14T11:25:18;96720.16;;;9.40;63.67
7774;BME280;3931;42.260;23.116;2023-02-14T11:27:46;96724.09;;;9.43;64.07
7774;BME280;3931;42.260;23.116;2023-02-14T11:30:19;96722.00;;;9.79;61.91
7774;BME280;3931;42.260;23.116;2023-02-14T11:32:50;96713.84;;;9.33;63.17
7774;BME280;3931;42.260;23.116;2023-02-14T11:35:21;96724.06;;;9.46;63.13
7774;BME280;3931;42.260;23.116;2023-02-14T11:37:53;96722.03;;;9.72;61.85
7774;BME280;3931;42.260;23.116;2023-02-14T11:40:25;96722.50;;;9.42;63.53
7774;BME280;3931;42.260;23.116;2023-02-14T11:42:53;96719.41;;;9.26;64.53
7774;BME280;3931;42.260;23.116;2023-02-14T11:45:27;96720.94;;;9.44;64.08
7774;BME280;3931;42.260;23.116;2023-02-14T11:48:06;96719.84;;;8.96;64.73
7774;BME280;3931;42.260;23.116;2023-02-14T11:50:35;96715.81;;;9.36;64.58
7774;BME280;3931;42.260;23.116;2023-02-14T11:53:09;96719.38;;;9.33;63.67
7774;BME280;3931;42.260;23.116;2023-02-14T11:55:36;96719.78;;;9.35;64.36
7774;BME280;3931;42.260;23.116;2023-02-14T11:58:04;96713.09;;;9.25;64.44
7774;BME280;3931;42.260;23.116;2023-02-14T12:00:32;96708.38;;;9.19;65.97
7774;BME280;3931;42.260;23.116;2023-02-14T12:03:00;96711.50;;;9.31;65.25
7774;BME280;3931;42.260;23.116;2023-02-14T12:05:31;96708.38;;;9.22;65.65
7774;BME280;3931;42.260;23.116;2023-02-14T12:08:00;96710.78;;;8.99;66.20
7774;BME280;3931;42.260;23.116;2023-02-14T12:10:28;96712.34;;;9.00;66.74
7774;BME280;3931;42.260;23.116;2023-02-14T12:12:57;96712.38;;;8.75;67.15
7774;BME280;3931;42.260;23.116;2023-02-14T12:15:29;96700.47;;;9.24;66.33
7774;BME280;3931;42.260;23.116;2023-02-14T12:18:14;96707.97;;;9.13;68.01
7774;BME280;3931;42.260;23.116;2023-02-14T12:20:47;96703.66;;;9.02;66.77
7774;BME280;3931;42.260;23.116;2023-02-14T12:23:16;96699.28;;;9.32;65.67
7774;BME280;3931;42.260;23.116;2023-02-14T12:25:47;96694.56;;;9.15;65.87
7774;BME280;3931;42.260;23.116;2023-02-14T12:28:18;96695.03;;;8.86;67.41
7774;BME280;3931;42.260;23.116;2023-02-14T12:30:48;96698.19;;;8.95;67.61
7774;BME280;3931;42.260;23.116;2023-02-14T12:33:17;96693.00;;;9.14;66.41
7774;BME280;3931;42.260;23.116;2023-02-14T12:35:50;96698.50;;;9.28;67.50
7774;BME280;3931;42.260;23.116;2023-02-14T12:38:24;96696.19;;;8.95;68.09
7774;BME280;3931;42.260;23.116;2023-02-14T12:41:02;96692.66;;;8.91;67.58
7774;BME280;3931;42.260;23.116;2023-02-14T12:43:46;96687.91;;;8.92;67.34
7774;BME280;3931;42.260;23.116;2023-02-14T12:49:34;96676.44;;;9.11;66.73
7774;BME280;3931;42.260;23.116;2023-02-14T12:52:14;96675.28;;;8.91;67.77
7774;BME280;3931;42.260;23.116;2023-02-14T12:54:57;96672.81;;;9.38;64.72
7774;BME280;3931;42.260;23.116;2023-02-14T12:57:35;96672.53;;;8.94;67.32
7774;BME280;3931;42.260;23.116;2023-02-14T13:00:18;96656.31;;;9.21;65.83
7774;BME280;3931;42.260;23.116;2023-02-14T13:03:22;96650.88;;;8.86;67.02
7774;BME280;3931;42.260;23.116;2023-02-14T13:05:59;96661.53;;;8.73;66.60
7774;BME280;3931;42.260;23.116;2023-02-14T13:08:44;96657.97;;;8.83;64.78
7774;BME280;3931;42.260;23.116;2023-02-14T13:11:20;96648.47;;;9.05;65.34
7774;BME280;3931;42.260;23.116;2023-02-14T13:13:55;96670.94;;;8.05;66.59
7774;BME280;3931;42.260;23.116;2023-02-14T13:16:35;96659.91;;;8.08;68.86
7774;BME280;3931;42.260;23.116;2023-02-14T13:19:12;96657.63;;;8.39;67.63
7774;BME280;3931;42.260;23.116;2023-02-14T13:21:44;96653.25;;;8.31;68.51
7774;BME280;3931;42.260;23.116;2023-02-14T13:24:14;96634.75;;;8.56;66.12
7774;BME280;3931;42.260;23.116;2023-02-14T13:26:43;96627.97;;;8.96;63.65
7774;BME280;3931;42.260;23.116;2023-02-14T13:29:13;96633.88;;;9.08;62.65
7774;BME280;3931;42.260;23.116;2023-02-14T13:31:41;96630.34;;;9.01;61.68
7774;BME280;3931;42.260;23.116;2023-02-14T13:34:24;96639.03;;;8.92;63.05
7774;BME280;3931;42.260;23.116;2023-02-14T13:36:53;96642.53;;;9.07;61.93
7774;BME280;3931;42.260;23.116;2023-02-14T13:39:30;96640.22;;;8.95;62.64
7774;BME280;3931;42.260;23.116;2023-02-14T13:41:57;96638.94;;;9.20;62.08
7774;BME280;3931;42.260;23.116;2023-02-14T13:44:41;96632.19;;;9.35;61.32
7774;BME280;3931;42.260;23.116;2023-02-14T13:47:15;96631.97;;;8.80;62.73
7774;BME280;3931;42.260;23.116;2023-02-14T13:49:48;96635.94;;;8.34;64.10
7774;BME280;3931;42.260;23.116;2023-02-14T13:52:39;96624.78;;;9.15;62.63